Santa Claus, Georgia
Current Conditions -  °F | °C
As of 11:55 PM on Saturday 22 Nov 2014 (Local Time) from KVDI Reporting Station
Heavy Rain Heavy Rain  
Wind Chill: 57°   Ceiling: 6000
Heat Index: 57°   Visibility: 5mi
Dew Point: 55°   Wind: 7mph
Humidity: 94%   Direction: 80°E
Pressure: 30.2"   Gusts: NA
Location:  32.1105°N, 82.281°W
Report Text: KVDI 230455Z AUTO 08006KT 5SM +RA SCT015 SCT034 OVC060 14/13 A3020 RMK AO2
Loading
Personal Weather Stations






























Interactive Weather Map New forecast layout! Learn more

10-Day Weather Forecast

Advertisements
Track Severe Weather on mobile